Pagrindinis puslapis
METAR-TAF:

METAR-TAF

Oro uostai :

Kuopijas, Suomija

platuma: 63-01N, ilguma: 027-48E, Aukštis: 98 m

Dabartinis oras

Ataskaita buvo paskelbta 30 minutes, ne 18:50 UTC
Vėjas 8 kt iš Rytų/Pietryčių
Temperatūra 11°C
Drėgmė 58%
Slėgis 1012 hPa
Matomumas 10 km arba daugiau
lietus

METAR: EFKU 221850Z AUTO 12008KT 9999 -RA NSC 11/03 Q1012

Laikas: 22:20 (19:20 UTC)

Prognozė

Ataskaita buvo paskelbta 1 valandą ir 45 minutes, ne 17:35 UTC
Prognozė galioja nuo 22 metu 18 UTC su 23 metu 18 UTC
Vėjas 6 kt iš Pietryčių
Matomumas 10 km arba daugiau
nėra debesų žemiau 1500 m ir nėra kamuolinių lietaus debesų
Tapsmas
nuo 23 metu 09 UTC su 23 metu 11 UTC
Vėjas 10 kt iš Vakarų/Šiaurės Vakarų
Tapsmas
nuo 23 metu 16 UTC su 23 metu 18 UTC
Vėjas 4 kt iš Rytų/Šiaurės Rytų

TAF: EFKU 221735Z 2218/2318 14006KT CAVOK BECMG 2309/2311 30010KT BECMG 2316/2318 07004KT

Orai ataskaitas ir orų prognozės (METAR, TAF).

turimą stotys yra geltonos ir raudonos taškus žemėlapyje.

Perkelti pele per norėdami pamatyti stoties vardą.

Tada spustelėkite, norėdami matyti oro stebėjimo ir prognozės.

Norėdami pakeisti žemėlapį: spustelėkite ant žalios mygtukų su juodo kryžiaus žemyn,; žalią mygtuką su brūkšneliu, jei norite nutolinti; arba žalių rodyklių gretimoms žemėlapius.


METAR-TAF: